createdAt,value
2023-02-27T00:00:21.223Z,6.40
2023-02-27T00:02:49.348Z,6.40
2023-02-27T00:05:16.761Z,6.40
2023-02-27T00:07:43.924Z,6.40
2023-02-27T00:10:11.656Z,6.40
2023-02-27T00:12:39.072Z,6.40
2023-02-27T00:15:07.473Z,6.40
2023-02-27T00:17:35.052Z,6.40
2023-02-27T00:20:02.673Z,6.40
2023-02-27T00:22:29.913Z,6.40
2023-02-27T00:24:57.090Z,6.40
2023-02-27T00:27:24.338Z,6.50
2023-02-27T00:29:51.536Z,6.50
2023-02-27T00:32:19.441Z,6.50
2023-02-27T00:34:47.737Z,6.50
2023-02-27T00:37:14.922Z,6.50
2023-02-27T00:39:42.252Z,6.50
2023-02-27T00:42:09.484Z,6.50
2023-02-27T00:44:36.699Z,6.50
2023-02-27T00:47:03.944Z,6.50
2023-02-27T00:49:32.858Z,6.40
2023-02-27T00:52:00.056Z,6.40
2023-02-27T00:54:27.877Z,6.40
2023-02-27T00:56:55.036Z,6.40
2023-02-27T00:59:22.202Z,6.40
2023-02-27T01:01:49.411Z,6.50
2023-02-27T01:04:16.600Z,6.50
2023-02-27T01:06:43.848Z,6.50
2023-02-27T01:09:11.135Z,6.50
2023-02-27T01:11:38.662Z,6.50
2023-02-27T01:14:05.969Z,6.50
2023-02-27T01:16:33.244Z,6.50
2023-02-27T01:19:00.582Z,6.50
2023-02-27T01:21:28.016Z,6.60
2023-02-27T01:23:55.419Z,6.50
2023-02-27T01:26:22.632Z,6.50
2023-02-27T01:28:49.825Z,6.50
2023-02-27T01:31:17.098Z,6.40
2023-02-27T01:33:44.330Z,6.40
2023-02-27T01:36:11.526Z,6.30
2023-02-27T01:38:38.750Z,6.30
2023-02-27T01:41:07.361Z,6.20
2023-02-27T01:43:34.922Z,6.30
2023-02-27T01:46:02.218Z,6.30
2023-02-27T01:48:34.405Z,6.20
2023-02-27T01:51:03.661Z,6.30
2023-02-27T01:53:33.857Z,6.20
2023-02-27T01:56:05.119Z,6.20
2023-02-27T01:58:32.420Z,6.30
2023-02-27T02:01:00.102Z,6.50
2023-02-27T02:03:33.862Z,6.70
2023-02-27T02:06:02.698Z,6.40
2023-02-27T02:08:32.014Z,6.30
2023-02-27T02:10:59.867Z,6.20
2023-02-27T02:13:27.340Z,6.10
2023-02-27T02:16:14.857Z,6.10
2023-02-27T02:19:01.042Z,6.10
2023-02-27T02:21:48.376Z,5.90
2023-02-27T02:24:15.545Z,5.90
2023-02-27T02:26:58.083Z,5.90
2023-02-27T02:29:28.060Z,6.10
2023-02-27T02:32:13.828Z,6.00
2023-02-27T02:34:59.786Z,5.90
2023-02-27T02:37:44.511Z,5.90
2023-02-27T02:40:17.645Z,5.90
2023-02-27T02:42:53.373Z,5.80
2023-02-27T02:45:21.915Z,5.80
2023-02-27T02:48:07.659Z,5.80
2023-02-27T02:50:39.513Z,5.90
2023-02-27T02:53:26.727Z,5.80
2023-02-27T02:56:20.784Z,5.80
2023-02-27T02:59:17.493Z,5.80
2023-02-27T03:01:49.129Z,5.90
2023-02-27T03:04:23.198Z,5.90
2023-02-27T03:06:54.752Z,5.90
2023-02-27T03:09:45.261Z,5.80
2023-02-27T03:12:14.209Z,5.80
2023-02-27T03:14:44.784Z,5.80
2023-02-27T03:17:15.460Z,5.80
2023-02-27T03:19:46.081Z,5.80
2023-02-27T03:22:18.635Z,5.80
2023-02-27T03:24:48.293Z,5.80
2023-02-27T03:27:16.886Z,5.80
2023-02-27T03:29:44.163Z,5.90
2023-02-27T03:32:16.100Z,5.90
2023-02-27T03:34:43.853Z,5.80
2023-02-27T03:37:30.559Z,5.80
2023-02-27T03:40:06.566Z,5.90
2023-02-27T03:42:37.703Z,5.80
2023-02-27T03:45:13.478Z,5.80
2023-02-27T03:47:40.889Z,5.90
2023-02-27T03:50:09.091Z,6.00
2023-02-27T03:52:36.547Z,6.00
2023-02-27T03:55:12.859Z,6.00
2023-02-27T03:57:41.072Z,5.90
2023-02-27T04:00:11.770Z,6.00
2023-02-27T04:02:43.709Z,5.90
2023-02-27T04:05:12.312Z,6.00
2023-02-27T04:07:55.134Z,5.80
2023-02-27T04:10:40.877Z,5.90
2023-02-27T04:13:14.602Z,6.00
2023-02-27T04:15:47.940Z,6.00
2023-02-27T04:18:38.379Z,6.00
2023-02-27T04:21:18.472Z,6.00
2023-02-27T04:23:51.506Z,6.00
2023-02-27T04:26:28.849Z,6.00
2023-02-27T04:29:04.950Z,5.90
2023-02-27T04:31:44.642Z,6.00
2023-02-27T04:34:18.055Z,6.00
2023-02-27T04:36:48.262Z,5.90
2023-02-27T04:39:27.266Z,6.00
2023-02-27T04:42:02.229Z,6.00
2023-02-27T04:44:30.972Z,6.00
2023-02-27T04:46:59.677Z,6.10
2023-02-27T04:49:33.053Z,6.10
2023-02-27T04:52:00.262Z,6.10
2023-02-27T04:54:40.772Z,6.20
2023-02-27T04:57:10.540Z,6.20
2023-02-27T04:59:39.944Z,6.30
2023-02-27T05:02:16.175Z,6.30
2023-02-27T05:04:44.903Z,6.30
2023-02-27T05:07:15.720Z,6.30
2023-02-27T05:09:42.855Z,6.30
2023-02-27T05:12:21.895Z,6.30
2023-02-27T05:14:49.081Z,6.30
2023-02-27T05:17:22.415Z,6.40
2023-02-27T05:19:49.753Z,6.40
2023-02-27T05:22:19.706Z,6.40
2023-02-27T05:24:49.637Z,6.40
2023-02-27T05:27:20.352Z,6.40
2023-02-27T05:29:51.866Z,6.40
2023-02-27T05:32:19.798Z,6.40
2023-02-27T05:34:51.979Z,6.40
2023-02-27T05:37:25.420Z,6.50
2023-02-27T05:39:53.290Z,6.50
2023-02-27T05:42:27.036Z,6.50
2023-02-27T05:44:57.006Z,6.50
2023-02-27T05:47:26.562Z,6.50
2023-02-27T05:50:02.511Z,6.60
2023-02-27T05:52:30.821Z,6.50
2023-02-27T05:55:03.825Z,6.60
2023-02-27T05:57:35.594Z,6.60
2023-02-27T06:00:05.907Z,6.70
2023-02-27T06:02:39.315Z,6.60
2023-02-27T06:05:08.774Z,6.60
2023-02-27T06:07:36.027Z,6.70
2023-02-27T06:10:04.633Z,6.60
2023-02-27T06:12:31.870Z,6.60
2023-02-27T06:14:59.142Z,6.70
2023-02-27T06:17:26.499Z,6.70
2023-02-27T06:19:53.702Z,6.70
2023-02-27T06:22:20.867Z,6.70
2023-02-27T06:24:48.088Z,6.70
2023-02-27T06:27:15.360Z,6.60
2023-02-27T06:29:42.573Z,6.60
2023-02-27T06:32:09.825Z,6.60
2023-02-27T06:34:37.044Z,6.60
2023-02-27T06:37:04.467Z,6.70
2023-02-27T06:39:32.750Z,6.70
2023-02-27T06:41:59.964Z,6.70
2023-02-27T06:44:27.170Z,6.70
2023-02-27T06:46:54.315Z,6.70
2023-02-27T06:49:21.560Z,6.70
2023-02-27T06:51:48.865Z,6.70
2023-02-27T06:54:16.041Z,6.80
2023-02-27T06:56:43.453Z,6.60
2023-02-27T06:59:11.205Z,6.60
2023-02-27T07:01:38.864Z,6.50
2023-02-27T07:04:06.110Z,6.50
2023-02-27T07:07:34.214Z,6.60
2023-02-27T07:09:20.532Z,6.50
2023-02-27T07:11:47.778Z,6.40
2023-02-27T07:14:16.681Z,6.50
2023-02-27T07:16:43.869Z,6.30
2023-02-27T07:19:11.329Z,6.30
2023-02-27T07:21:38.567Z,6.40
2023-02-27T07:24:05.870Z,6.50
2023-02-27T07:26:33.062Z,6.50
2023-02-27T07:29:00.402Z,6.50
2023-02-27T07:31:29.034Z,6.30
2023-02-27T07:33:56.406Z,6.40
2023-02-27T07:36:23.646Z,6.40
2023-02-27T07:38:50.835Z,6.50
2023-02-27T07:41:30.019Z,6.40
2023-02-27T07:44:00.386Z,6.40
2023-02-27T07:46:28.269Z,6.40
2023-02-27T07:48:55.700Z,6.40
2023-02-27T07:51:23.031Z,6.40
2023-02-27T07:53:50.239Z,6.30
2023-02-27T07:56:17.455Z,6.50
2023-02-27T07:58:44.697Z,6.40
2023-02-27T08:01:11.889Z,6.40
2023-02-27T08:03:39.098Z,6.60
2023-02-27T08:06:06.444Z,6.50
2023-02-27T08:08:33.655Z,6.50
2023-02-27T08:11:00.917Z,6.60
2023-02-27T08:13:55.742Z,6.60
2023-02-27T08:16:15.435Z,6.60
2023-02-27T08:18:42.668Z,6.80
2023-02-27T08:21:09.885Z,6.80
2023-02-27T08:23:37.144Z,6.90
2023-02-27T08:26:04.566Z,6.70
2023-02-27T08:28:31.800Z,6.90
2023-02-27T08:30:59.047Z,6.90
2023-02-27T08:33:26.693Z,7.00
2023-02-27T08:35:55.676Z,7.00
2023-02-27T08:38:24.880Z,7.10
2023-02-27T08:40:53.497Z,7.30
2023-02-27T08:43:21.635Z,7.20
2023-02-27T08:45:49.259Z,7.30
2023-02-27T08:48:17.786Z,7.20
2023-02-27T08:50:45.591Z,7.30
2023-02-27T08:53:12.847Z,7.40
2023-02-27T08:55:40.038Z,7.40
2023-02-27T08:58:07.214Z,7.70
2023-02-27T09:00:34.574Z,7.40
2023-02-27T09:03:01.863Z,7.50
2023-02-27T09:05:29.443Z,7.60
2023-02-27T09:07:56.681Z,7.70
2023-02-27T09:10:23.962Z,7.80
2023-02-27T09:12:51.264Z,7.90
2023-02-27T09:15:18.566Z,8.00
2023-02-27T09:17:45.761Z,7.70
2023-02-27T09:20:13.001Z,8.00
2023-02-27T09:22:40.215Z,7.90
2023-02-27T09:25:07.708Z,8.10
2023-02-27T09:27:35.236Z,8.20
2023-02-27T09:30:02.570Z,8.10
2023-02-27T09:32:29.870Z,8.20
2023-02-27T09:34:58.298Z,8.40
2023-02-27T09:37:25.583Z,8.50
2023-02-27T09:39:52.761Z,8.40
2023-02-27T09:42:24.589Z,8.30
2023-02-27T09:45:01.938Z,8.40
2023-02-27T09:47:36.887Z,8.30
2023-02-27T09:50:07.322Z,8.60
2023-02-27T09:52:36.382Z,8.40
2023-02-27T09:55:11.959Z,8.40
2023-02-27T09:57:39.137Z,8.50
2023-02-27T10:00:27.049Z,8.50
2023-02-27T10:03:14.535Z,8.60
2023-02-27T10:05:47.352Z,8.80
2023-02-27T10:08:17.570Z,9.00
2023-02-27T10:10:55.103Z,8.70
2023-02-27T10:13:40.988Z,8.90
2023-02-27T10:16:10.802Z,8.90
2023-02-27T10:18:46.759Z,8.70
2023-02-27T10:21:17.077Z,8.90
2023-02-27T10:23:49.494Z,9.00
2023-02-27T10:26:19.683Z,8.80
2023-02-27T10:28:46.919Z,8.70
2023-02-27T10:31:21.125Z,8.70
2023-02-27T10:33:48.825Z,8.90
2023-02-27T10:36:32.175Z,9.00
2023-02-27T10:39:03.587Z,9.10
2023-02-27T10:41:30.831Z,9.10
2023-02-27T10:43:59.514Z,9.50
2023-02-27T10:46:31.719Z,9.50
2023-02-27T10:49:00.377Z,9.40
2023-02-27T10:51:31.726Z,9.80
2023-02-27T10:54:17.810Z,9.50
2023-02-27T10:56:47.507Z,9.30
2023-02-27T10:59:40.804Z,9.50
2023-02-27T11:02:17.203Z,9.20
2023-02-27T11:04:49.842Z,9.50
2023-02-27T11:07:25.892Z,9.40
2023-02-27T11:10:04.437Z,9.40
2023-02-27T11:12:33.147Z,9.40
2023-02-27T11:15:02.531Z,9.40
2023-02-27T11:17:32.387Z,9.60
2023-02-27T11:20:00.615Z,9.20
2023-02-27T11:22:31.534Z,9.40
2023-02-27T11:25:18.308Z,9.50
2023-02-27T11:27:46.604Z,9.50
2023-02-27T11:30:25.934Z,9.30
2023-02-27T11:32:53.800Z,9.00
2023-02-27T11:35:29.840Z,9.50
2023-02-27T11:37:59.021Z,9.20
2023-02-27T11:40:30.019Z,9.30
2023-02-27T11:43:01.845Z,9.50
2023-02-27T11:46:05.197Z,9.60
2023-02-27T11:48:23.590Z,9.50
2023-02-27T11:50:53.871Z,9.70
2023-02-27T11:53:34.414Z,9.70
2023-02-27T11:56:03.563Z,9.70
2023-02-27T11:58:35.188Z,9.60
2023-02-27T12:01:07.796Z,9.60
2023-02-27T12:03:40.830Z,9.50
2023-02-27T12:06:15.342Z,9.60
2023-02-27T12:08:49.332Z,9.80
2023-02-27T12:11:22.119Z,9.90
2023-02-27T12:13:55.638Z,10.10
2023-02-27T12:16:31.664Z,10.20
2023-02-27T12:19:12.965Z,10.20
2023-02-27T12:21:42.291Z,10.20
2023-02-27T12:24:16.067Z,10.60
2023-02-27T12:26:45.263Z,10.40
2023-02-27T12:29:15.210Z,10.20
2023-02-27T12:31:45.387Z,10.20
2023-02-27T12:34:16.841Z,10.40
2023-02-27T12:36:44.649Z,10.50
2023-02-27T12:39:38.278Z,10.60
2023-02-27T12:42:24.990Z,10.80
2023-02-27T12:45:10.568Z,10.90
2023-02-27T12:47:46.738Z,10.80
2023-02-27T12:50:18.890Z,10.30
2023-02-27T12:52:50.863Z,10.50
2023-02-27T12:55:23.981Z,10.30
2023-02-27T12:58:09.801Z,10.40
2023-02-27T13:00:46.329Z,10.60
2023-02-27T13:03:13.620Z,10.70
2023-02-27T13:05:45.329Z,10.50
2023-02-27T13:08:18.442Z,10.60
2023-02-27T13:10:49.152Z,10.60
2023-02-27T13:13:20.721Z,10.70
2023-02-27T13:16:00.697Z,10.90
2023-02-27T13:18:30.745Z,11.10
2023-02-27T13:21:11.216Z,11.10
2023-02-27T13:23:44.510Z,10.90
2023-02-27T13:26:17.112Z,10.60
2023-02-27T13:28:44.643Z,10.80
2023-02-27T13:31:29.905Z,11.00
2023-02-27T13:34:16.770Z,10.70
2023-02-27T13:36:46.605Z,10.80
2023-02-27T13:39:32.443Z,10.80
2023-02-27T13:41:59.905Z,10.70
2023-02-27T13:44:28.896Z,10.80
2023-02-27T13:47:16.101Z,10.90
2023-02-27T13:49:43.756Z,10.90
2023-02-27T13:52:10.991Z,11.30
2023-02-27T13:54:41.771Z,10.90
2023-02-27T13:57:14.739Z,10.70
2023-02-27T13:59:44.363Z,10.70
2023-02-27T14:02:11.675Z,10.70
2023-02-27T14:04:47.015Z,10.50
2023-02-27T14:07:18.609Z,10.70
2023-02-27T14:09:47.094Z,10.70
2023-02-27T14:12:44.030Z,10.50
2023-02-27T14:15:18.595Z,10.40
2023-02-27T14:17:46.693Z,10.20
2023-02-27T14:20:34.141Z,10.40
2023-02-27T14:23:20.598Z,10.40
2023-02-27T14:25:57.989Z,10.50
2023-02-27T14:28:31.019Z,10.30
2023-02-27T14:31:06.048Z,10.20
2023-02-27T14:33:45.622Z,10.30
2023-02-27T14:36:19.049Z,10.20
2023-02-27T14:38:46.493Z,10.40
2023-02-27T14:41:32.077Z,10.00
2023-02-27T14:43:59.426Z,10.10
2023-02-27T14:46:30.956Z,10.30
2023-02-27T14:49:00.115Z,10.40
2023-02-27T14:51:30.447Z,10.30
2023-02-27T14:54:05.556Z,9.80
2023-02-27T14:56:33.232Z,9.60
2023-02-27T14:59:04.931Z,9.90
2023-02-27T15:01:36.473Z,9.90
2023-02-27T15:04:04.662Z,9.90
2023-02-27T15:06:43.771Z,9.90
2023-02-27T15:09:34.234Z,9.70
2023-02-27T15:12:04.283Z,9.60
2023-02-27T15:14:34.572Z,9.70
2023-02-27T15:17:01.925Z,9.60
2023-02-27T15:19:30.210Z,9.50
2023-02-27T15:22:04.113Z,9.60
2023-02-27T15:24:47.883Z,9.50
2023-02-27T15:27:27.081Z,9.50
2023-02-27T15:29:55.536Z,9.50
2023-02-27T15:32:31.431Z,9.40
2023-02-27T15:35:01.039Z,9.30
2023-02-27T15:37:32.322Z,9.50
2023-02-27T15:40:00.180Z,9.50
2023-02-27T15:42:34.956Z,9.60
2023-02-27T15:45:02.933Z,9.60
2023-02-27T15:47:33.736Z,9.60
2023-02-27T15:50:11.932Z,9.60
2023-02-27T15:52:43.384Z,9.60
2023-02-27T15:55:15.383Z,9.50
2023-02-27T15:57:56.599Z,9.50
2023-02-27T16:00:30.721Z,9.60
2023-02-27T16:02:58.684Z,9.70
2023-02-27T16:05:40.612Z,9.50
2023-02-27T16:08:08.194Z,9.20
2023-02-27T16:10:41.721Z,9.20
2023-02-27T16:13:27.710Z,9.30
2023-02-27T16:16:00.232Z,9.40
2023-02-27T16:18:35.435Z,9.40
2023-02-27T16:21:11.294Z,9.30
2023-02-27T16:23:39.033Z,9.10
2023-02-27T16:26:06.309Z,9.00
2023-02-27T16:28:35.424Z,9.10
2023-02-27T16:31:02.772Z,9.10
2023-02-27T16:33:32.451Z,9.10
2023-02-27T16:36:13.255Z,8.90
2023-02-27T16:38:40.441Z,8.90
2023-02-27T16:41:09.430Z,8.80
2023-02-27T16:43:36.761Z,8.80
2023-02-27T16:46:04.101Z,8.90
2023-02-27T16:48:31.325Z,8.80
2023-02-27T16:50:58.545Z,8.70
2023-02-27T16:53:25.812Z,8.70
2023-02-27T16:55:55.107Z,8.60
2023-02-27T16:58:22.294Z,8.60
2023-02-27T17:00:49.545Z,8.60
2023-02-27T17:03:16.882Z,8.60
2023-02-27T17:05:44.086Z,8.60
2023-02-27T17:08:11.350Z,8.60
2023-02-27T17:10:38.572Z,8.50
2023-02-27T17:13:06.193Z,8.50
2023-02-27T17:15:33.455Z,8.50
2023-02-27T17:18:00.771Z,8.40
2023-02-27T17:20:30.132Z,8.40
2023-02-27T17:22:57.786Z,8.40
2023-02-27T17:25:26.315Z,8.40
2023-02-27T17:27:53.905Z,8.30
2023-02-27T17:30:21.186Z,8.20
2023-02-27T17:32:48.400Z,8.20
2023-02-27T17:35:15.655Z,8.20
2023-02-27T17:37:42.832Z,8.10
2023-02-27T17:40:12.176Z,8.00
2023-02-27T17:42:39.507Z,8.10
2023-02-27T17:45:07.651Z,8.00
2023-02-27T17:47:34.971Z,7.90
2023-02-27T17:50:02.724Z,8.00
2023-02-27T17:52:30.062Z,8.00
2023-02-27T17:54:57.275Z,8.00
2023-02-27T17:57:24.508Z,7.90
2023-02-27T17:59:51.698Z,7.90
2023-02-27T18:02:19.330Z,7.90
2023-02-27T18:04:47.322Z,7.80
2023-02-27T18:07:14.643Z,7.90
2023-02-27T18:09:41.934Z,7.90
2023-02-27T18:12:09.143Z,7.90
2023-02-27T18:14:36.452Z,7.80
2023-02-27T18:17:03.767Z,7.80
2023-02-27T18:19:32.576Z,7.90
2023-02-27T18:21:59.863Z,7.90
2023-02-27T18:24:27.106Z,8.00
2023-02-27T18:26:54.555Z,7.90
2023-02-27T18:29:21.877Z,7.90
2023-02-27T18:31:53.970Z,7.90
2023-02-27T18:34:21.858Z,7.90
2023-02-27T18:36:49.087Z,7.90
2023-02-27T18:39:16.372Z,7.80
2023-02-27T18:41:43.556Z,7.70
2023-02-27T18:44:10.747Z,7.80
2023-02-27T18:46:38.429Z,7.70
2023-02-27T18:49:06.030Z,7.60
2023-02-27T18:51:33.439Z,7.60
2023-02-27T18:54:00.858Z,7.50
2023-02-27T18:56:30.491Z,7.50
2023-02-27T18:59:01.950Z,7.50
2023-02-27T19:01:31.187Z,7.60
2023-02-27T19:04:03.568Z,7.50
2023-02-27T19:06:35.088Z,7.50
2023-02-27T19:09:04.418Z,7.50
2023-02-27T19:11:34.655Z,7.50
2023-02-27T19:14:02.735Z,7.50
2023-02-27T19:16:30.398Z,7.50
2023-02-27T19:18:58.569Z,7.50
2023-02-27T19:21:26.253Z,7.50
2023-02-27T19:23:53.431Z,7.50
2023-02-27T19:26:21.307Z,7.40
2023-02-27T19:28:53.559Z,7.50
2023-02-27T19:31:21.785Z,7.50
2023-02-27T19:33:49.510Z,7.50
2023-02-27T19:36:18.434Z,7.50
2023-02-27T19:38:45.998Z,7.40
2023-02-27T19:41:14.820Z,7.40
2023-02-27T19:43:42.465Z,7.30
2023-02-27T19:46:11.849Z,7.10
2023-02-27T19:48:39.162Z,7.10
2023-02-27T19:51:07.553Z,7.10
2023-02-27T19:53:35.880Z,7.10
2023-02-27T19:56:05.129Z,7.10
2023-02-27T19:58:33.986Z,7.10
2023-02-27T20:01:01.490Z,7.10
2023-02-27T20:03:29.337Z,7.00
2023-02-27T20:05:56.789Z,7.10
2023-02-27T20:08:24.099Z,7.00
2023-02-27T20:10:58.402Z,7.00
2023-02-27T20:13:26.035Z,7.00
2023-02-27T20:15:56.444Z,7.00
2023-02-27T20:18:24.305Z,7.00
2023-02-27T20:21:03.748Z,7.00
2023-02-27T20:23:31.499Z,7.00
2023-02-27T20:25:59.230Z,6.90
2023-02-27T20:28:28.291Z,6.90
2023-02-27T20:30:55.574Z,6.90
2023-02-27T20:33:22.767Z,6.80
2023-02-27T20:35:50.010Z,6.80
2023-02-27T20:38:19.942Z,6.70
2023-02-27T20:40:47.198Z,6.70
2023-02-27T20:43:14.370Z,6.60
2023-02-27T20:45:41.727Z,6.60
2023-02-27T20:48:08.991Z,6.60
2023-02-27T20:50:36.600Z,6.60
2023-02-27T20:53:03.888Z,6.50
2023-02-27T20:55:31.098Z,6.50
2023-02-27T20:57:58.567Z,6.50
2023-02-27T21:00:26.898Z,6.50
2023-02-27T21:02:54.266Z,6.50
2023-02-27T21:05:21.503Z,6.50
2023-02-27T21:07:48.780Z,6.50
2023-02-27T21:10:15.997Z,6.30
2023-02-27T21:12:44.923Z,6.40
2023-02-27T21:15:12.250Z,6.30
2023-02-27T21:17:39.631Z,6.30
2023-02-27T21:20:07.274Z,6.30
2023-02-27T21:22:34.763Z,6.30
2023-02-27T21:25:01.920Z,6.20
2023-02-27T21:27:29.164Z,6.30
2023-02-27T21:29:56.408Z,6.30
2023-02-27T21:32:23.660Z,6.30
2023-02-27T21:34:50.944Z,6.30
2023-02-27T21:37:18.186Z,6.20
2023-02-27T21:39:50.473Z,6.20
2023-02-27T21:42:18.121Z,6.10
2023-02-27T21:44:45.301Z,6.10
2023-02-27T21:47:12.585Z,6.00
2023-02-27T21:49:39.921Z,6.00
2023-02-27T21:52:07.171Z,5.90
2023-02-27T21:54:34.453Z,6.00
2023-02-27T21:57:03.174Z,6.00
2023-02-27T21:59:30.586Z,5.90
2023-02-27T22:01:57.893Z,6.00
2023-02-27T22:04:25.349Z,5.90
2023-02-27T22:06:52.976Z,5.90
2023-02-27T22:09:21.508Z,6.00
2023-02-27T22:11:49.158Z,6.00
2023-02-27T22:14:16.435Z,6.00
2023-02-27T22:16:43.692Z,5.90
2023-02-27T22:19:13.747Z,6.00
2023-02-27T22:21:40.974Z,5.90
2023-02-27T22:24:08.306Z,5.90
2023-02-27T22:26:35.817Z,5.90
2023-02-27T22:29:03.600Z,5.90
2023-02-27T22:31:32.765Z,6.00
2023-02-27T22:34:02.480Z,5.90
2023-02-27T22:36:30.863Z,5.90
2023-02-27T22:38:58.575Z,5.90
2023-02-27T22:41:27.521Z,5.90
2023-02-27T22:43:55.312Z,5.90
2023-02-27T22:46:29.850Z,5.90
2023-02-27T22:48:57.949Z,5.80
2023-02-27T22:51:27.707Z,5.80
2023-02-27T22:53:55.993Z,5.80
2023-02-27T22:56:23.976Z,5.80
2023-02-27T22:58:51.600Z,5.80
2023-02-27T23:01:23.066Z,5.60
2023-02-27T23:03:51.166Z,5.60
2023-02-27T23:06:19.933Z,5.70
2023-02-27T23:08:47.617Z,5.60
2023-02-27T23:11:15.406Z,5.60
2023-02-27T23:13:42.733Z,5.70
2023-02-27T23:16:13.846Z,5.60
2023-02-27T23:18:42.114Z,5.60
2023-02-27T23:21:09.583Z,5.60
2023-02-27T23:23:36.853Z,5.50
2023-02-27T23:26:04.422Z,5.50
2023-02-27T23:28:32.230Z,5.60
2023-02-27T23:31:02.353Z,5.50
2023-02-27T23:33:29.892Z,5.60
2023-02-27T23:35:57.721Z,5.60
2023-02-27T23:38:25.905Z,5.60
2023-02-27T23:40:53.274Z,5.50
2023-02-27T23:43:20.689Z,5.60
2023-02-27T23:45:47.916Z,5.60
2023-02-27T23:48:15.143Z,5.60
2023-02-27T23:50:46.349Z,5.70
2023-02-27T23:53:13.851Z,5.70
2023-02-27T23:55:41.098Z,5.70
2023-02-27T23:58:09.358Z,5.70
